Time;durP1;ratioP1;P1;durP2;ratioP2;P2;SDS_P1;SDS_P2;PMS_P1;PMS_P2;Temp;Humidity;BMP_temperature;BMP_pressure;BME280_temperature;BME280_humidity;BME280_pressure;Samples;Min_cycle;Max_cycle;Signal;HPM_P1;HPM_P2
2022/08/23 00:02:25;;;;;;;31.60;5.00;;;;;;;18.15;74.79;98674.15;104893;1271;75287;-23
2022/08/23 00:04:52;;;;;;;27.00;4.60;;;;;;;18.58;72.60;98673.73;104781;1271;76016;-23
2022/08/23 00:07:40;;;;;;;32.40;4.20;;;;;;;18.62;71.56;98673.38;104729;1271;75393;-23
2022/08/23 00:10:09;;;;;;;25.90;4.50;;;;;;;18.49;71.95;98680.55;104831;1271;62716;-23
2022/08/23 00:12:36;;;;;;;26.50;5.80;;;;;;;18.29;72.50;98675.92;104772;1271;61884;-23
2022/08/23 00:15:04;;;;;;;23.80;5.10;;;;;;;18.07;73.51;98675.05;104778;1271;75169;-23
2022/08/23 00:17:30;;;;;;;33.30;4.10;;;;;;;17.88;74.55;98675.33;104624;1271;75724;-23
2022/08/23 00:20:09;;;;;;;29.60;4.90;;;;;;;18.31;73.26;98679.19;104720;1271;75448;-23
2022/08/23 00:22:36;;;;;;;20.90;5.00;;;;;;;18.85;71.42;98680.52;104758;1271;63326;-23
2022/08/23 00:25:05;;;;;;;28.90;4.30;;;;;;;18.82;70.66;98684.73;104840;1271;63247;-23
2022/08/23 00:27:32;;;;;;;27.60;4.50;;;;;;;18.49;71.66;98688.33;104674;1274;75901;-23
2022/08/23 00:29:59;;;;;;;43.80;6.40;;;;;;;18.25;72.47;98685.08;104719;1271;75991;-23
2022/08/23 00:32:28;;;;;;;23.10;4.20;;;;;;;18.04;73.41;98685.10;104827;1271;75166;-23
2022/08/23 00:34:55;;;;;;;32.00;5.20;;;;;;;17.84;74.18;98685.25;104779;1271;63059;-23
2022/08/23 00:37:22;;;;;;;35.30;5.20;;;;;;;17.69;75.06;98682.92;104615;1273;62052;-23
2022/08/23 00:39:49;;;;;;;33.10;5.30;;;;;;;18.07;74.17;98678.23;104701;1271;75956;-23
2022/08/23 00:48:08;;;;;;;43.50;5.00;;;;;;;18.26;72.90;98686.19;105077;1271;62044;-23
2022/08/23 00:50:39;;;;;;;34.50;5.20;;;;;;;17.95;74.03;98692.14;105095;1270;61836;-23
2022/08/23 00:53:14;;;;;;;35.60;5.00;;;;;;;17.64;75.15;98693.23;104784;1271;76874;-23
2022/08/23 00:55:43;;;;;;;27.90;3.90;;;;;;;17.49;75.71;98694.17;104482;1271;76809;-23
2022/08/23 00:58:11;;;;;;;32.20;3.50;;;;;;;17.96;74.39;98691.61;104710;1271;75203;-23
2022/08/23 01:00:38;;;;;;;26.20;4.10;;;;;;;18.35;72.57;98688.27;104715;1271;62896;-23
2022/08/23 01:03:07;;;;;;;30.80;4.40;;;;;;;18.49;72.09;98687.52;104707;1272;63173;-23
2022/08/23 01:06:00;;;;;;;39.90;4.50;;;;;;;18.23;72.13;98688.46;104632;1271;74642;-23
2022/08/23 01:08:28;;;;;;;;;;;;;;;17.99;72.84;98690.34;104750;1271;76944;-23
2022/08/23 01:10:59;;;;;;;30.80;5.10;;;;;;;17.84;73.62;98693.57;104717;1271;74593;-23
2022/08/23 01:13:31;;;;;;;26.10;4.40;;;;;;;17.52;75.25;98695.27;104764;1271;64782;-23
2022/08/23 01:16:02;;;;;;;37.60;4.50;;;;;;;17.93;74.06;98696.55;104801;1271;61840;-23
2022/08/23 01:18:29;;;;;;;26.50;4.50;;;;;;;18.26;72.56;98696.05;104477;1271;76255;-23
2022/08/23 01:21:23;;;;;;;26.70;4.40;;;;;;;18.14;73.05;98700.09;104693;1271;76785;-23
2022/08/23 01:23:52;;;;;;;36.90;5.20;;;;;;;17.84;73.32;98698.62;104679;1271;75375;-23
2022/08/23 01:26:20;;;;;;;44.00;5.20;;;;;;;17.47;74.99;98694.86;104689;1271;62253;-23
2022/08/23 01:28:50;;;;;;;33.20;4.70;;;;;;;17.26;76.17;98691.54;104669;1271;62084;-23
2022/08/23 01:31:17;;;;;;;27.80;4.20;;;;;;;17.60;75.11;98693.34;104772;1271;75399;-23
2022/08/23 01:33:49;;;;;;;24.20;4.60;;;;;;;17.94;73.48;98691.67;104761;1271;76774;-23
2022/08/23 01:36:17;;;;;;;27.30;4.50;;;;;;;17.79;74.23;98693.39;104667;1271;74235;-23
2022/08/23 01:38:44;;;;;;;31.80;5.30;;;;;;;17.60;74.96;98692.48;104704;1271;63075;-23
2022/08/23 01:41:11;;;;;;;20.30;3.60;;;;;;;17.56;75.27;98694.28;104697;1274;62104;-23
2022/08/23 01:43:39;;;;;;;33.40;4.70;;;;;;;17.50;74.91;98693.49;104773;1271;75555;-23
2022/08/23 01:46:16;;;;;;;20.90;3.20;;;;;;;17.36;75.54;98695.11;104780;1271;76592;-23
2022/08/23 01:48:45;;;;;;;29.60;4.00;;;;;;;17.83;74.29;98696.81;104644;1271;75391;-23
2022/08/23 01:51:13;;;;;;;22.60;4.20;;;;;;;18.31;72.21;98695.97;104646;1274;61774;-23
2022/08/23 01:53:40;;;;;;;33.20;5.10;;;;;;;18.30;71.99;98697.75;104648;1271;63014;-23
2022/08/23 01:56:07;;;;;;;34.80;5.30;;;;;;;18.20;72.22;98694.34;104815;1271;75340;-23
2022/08/23 01:58:36;;;;;;;26.00;4.10;;;;;;;17.87;73.18;98695.42;105006;1271;77085;-23
2022/08/23 02:01:03;;;;;;;31.60;4.80;;;;;;;17.63;74.33;98696.62;105087;1271;75541;-23
2022/08/23 02:03:32;;;;;;;28.40;5.60;;;;;;;17.34;76.01;98695.11;104791;1271;63084;-23
2022/08/23 02:05:59;;;;;;;21.60;4.70;;;;;;;17.74;75.28;98692.14;104719;1271;62055;-23
2022/08/23 02:11:15;;;;;;;34.90;4.50;;;;;;;18.17;72.36;98695.36;104772;1271;76021;-23
2022/08/23 02:13:46;;;;;;;29.10;4.00;;;;;;;17.90;73.45;98694.95;104618;1272;75583;-23
2022/08/23 02:16:25;;;;;;;33.90;4.20;;;;;;;17.78;73.82;98693.02;104786;1271;62262;-23
2022/08/23 02:18:55;;;;;;;36.20;7.70;;;;;;;17.53;74.43;98698.66;104691;1271;61956;-23
2022/08/23 02:21:22;;;;;;;27.90;5.30;;;;;;;17.31;75.71;98697.04;104828;1271;76468;-23
2022/08/23 02:23:50;;;;;;;38.00;7.70;;;;;;;17.76;74.52;98699.21;104764;1271;76760;-23
2022/08/23 02:26:18;;;;;;;25.70;6.40;;;;;;;18.23;72.83;98696.37;104736;1271;73145;-24
2022/08/23 02:28:49;;;;;;;24.00;4.70;;;;;;;18.33;72.59;98698.70;104728;1271;63060;-22
2022/08/23 02:31:17;;;;;;;18.50;4.10;;;;;;;18.15;72.85;98695.77;104678;1271;63578;-25
2022/08/23 02:33:45;;;;;;;35.40;5.00;;;;;;;17.92;73.54;98697.27;104798;1271;76687;-25
2022/08/23 02:36:14;;;;;;;37.30;4.30;;;;;;;17.47;75.31;98697.61;104775;1271;75937;-24
2022/08/23 02:38:49;;;;;;;30.70;4.60;;;;;;;17.03;77.45;98697.06;104620;1271;75221;-24
2022/08/23 02:41:16;;;;;;;30.80;4.40;;;;;;;17.36;76.33;98697.26;104721;1271;62053;-24
2022/08/23 02:43:44;;;;;;;44.10;6.00;;;;;;;17.48;75.64;98694.85;104847;1271;61946;-24
2022/08/23 02:46:11;;;;;;;36.80;5.10;;;;;;;17.31;75.85;98694.41;104745;1271;76387;-24
2022/08/23 02:48:39;;;;;;;33.30;4.50;;;;;;;17.18;76.74;98698.29;104779;1271;74920;-24
2022/08/23 02:51:07;;;;;;;32.80;3.80;;;;;;;17.17;76.92;98701.76;104678;1274;75273;-24
2022/08/23 02:53:34;;;;;;;30.20;4.60;;;;;;;16.93;77.68;98699.93;104798;1271;64821;-24
2022/08/23 02:56:04;;;;;;;25.30;3.50;;;;;;;17.23;76.79;98704.36;105145;1271;61837;-24
2022/08/23 02:58:39;;;;;;;25.70;4.10;;;;;;;17.64;74.98;98703.95;104958;1271;75597;-24
2022/08/23 03:01:20;;;;;;;27.20;4.10;;;;;;;17.81;74.26;98708.75;104974;1272;75809;-24
2022/08/23 03:03:48;;;;;;;23.00;3.80;;;;;;;17.62;74.54;98708.90;104673;1271;74129;-24
2022/08/23 03:06:15;;;;;;;35.20;4.50;;;;;;;17.10;76.57;98706.61;104751;1274;62013;-24
2022/08/23 03:08:53;;;;;;;26.30;5.00;;;;;;;16.79;78.11;98705.70;104680;1272;61887;-24
2022/08/23 03:11:20;;;;;;;35.70;4.60;;;;;;;17.14;77.05;98705.81;104688;1271;76502;-24
2022/08/23 03:13:50;;;;;;;26.90;4.60;;;;;;;17.36;75.84;98697.16;104797;1271;75678;-24
2022/08/23 03:16:17;;;;;;;32.70;4.20;;;;;;;17.17;76.41;98697.42;104655;1274;75832;-24
2022/08/23 03:18:45;;;;;;;32.40;4.60;;;;;;;17.07;76.84;98701.14;104825;1271;61109;-24
2022/08/23 03:21:12;;;;;;;21.70;4.00;;;;;;;17.02;77.04;98699.95;104741;1271;63073;-24
2022/08/23 03:23:40;;;;;;;28.40;4.30;;;;;;;16.92;77.79;98700.01;104737;1271;76655;-24
2022/08/23 03:26:08;;;;;;;40.40;6.00;;;;;;;17.08;77.10;98700.80;104770;1271;76851;-24
2022/08/23 03:28:37;;;;;;;30.70;4.40;;;;;;;17.40;75.70;98700.88;104683;1271;74339;-24
2022/08/23 03:31:05;;;;;;;32.10;4.20;;;;;;;17.60;75.08;98701.02;104727;1271;63050;-24
2022/08/23 03:33:35;;;;;;;25.70;5.70;;;;;;;17.60;74.71;98710.83;104641;1271;61893;-24
2022/08/23 03:36:05;;;;;;;25.90;5.10;;;;;;;17.41;75.28;98713.20;104942;1271;75636;-24
2022/08/23 03:38:32;;;;;;;29.80;5.80;;;;;;;17.33;75.06;98719.98;104693;1271;77141;-24
2022/08/23 03:41:02;;;;;;;18.70;3.50;;;;;;;17.17;76.19;98725.23;104750;1271;75423;-24
2022/08/23 03:43:29;;;;;;;30.00;3.60;;;;;;;17.54;75.16;98729.30;104696;1271;63088;-24
2022/08/23 03:45:56;;;;;;;24.60;4.40;;;;;;;18.07;73.51;98732.14;104702;1271;61775;-24
2022/08/23 03:48:23;;;;;;;25.60;4.00;;;;;;;18.08;73.07;98731.19;104694;1271;76669;-24
2022/08/23 03:50:51;;;;;;;27.50;4.10;;;;;;;18.08;73.03;98731.88;104771;1271;76100;-24
2022/08/23 03:53:22;;;;;;;22.70;4.90;;;;;;;17.91;73.25;98735.14;104794;1271;75563;-24
2022/08/23 03:55:52;;;;;;;21.80;4.50;;;;;;;17.77;73.86;98737.70;104712;1271;63083;-25
2022/08/23 03:58:20;;;;;;;23.20;3.70;;;;;;;17.58;74.98;98729.84;104626;1271;63062;-24
2022/08/23 04:00:47;;;;;;;22.20;4.40;;;;;;;17.96;73.79;98724.29;104850;1271;76295;-24
2022/08/23 04:03:15;;;;;;;35.90;4.70;;;;;;;18.23;72.70;98718.34;104754;1271;75986;-24
2022/08/23 04:06:11;;;;;;;20.80;4.20;;;;;;;18.20;73.20;98721.01;104963;1271;75399;-25
2022/08/23 04:08:38;;;;;;;40.00;5.90;;;;;;;18.07;73.17;98724.89;104987;1271;61179;-24
2022/08/23 04:11:06;;;;;;;30.30;9.40;;;;;;;17.87;73.94;98728.98;104770;1271;61945;-24
2022/08/23 04:13:35;;;;;;;30.90;6.70;;;;;;;17.69;74.90;98732.64;105102;1271;76992;-24
2022/08/23 04:16:03;;;;;;;20.80;6.40;;;;;;;17.52;75.84;98732.66;105162;1271;77031;-24
2022/08/23 04:18:32;;;;;;;28.80;4.20;;;;;;;18.01;74.41;98739.91;104793;1271;75407;-24
2022/08/23 04:21:01;;;;;;;24.90;4.20;;;;;;;18.22;73.26;98734.61;104867;1271;61142;-24
2022/08/23 04:23:29;;;;;;;37.80;4.90;;;;;;;18.07;74.02;98745.08;104835;1271;62911;-24
2022/08/23 04:25:56;;;;;;;26.30;4.90;;;;;;;18.16;73.80;98744.59;105121;1271;76822;-24
2022/08/23 04:28:24;;;;;;;31.30;4.50;;;;;;;17.96;74.49;98745.32;105142;1271;77413;-24
2022/08/23 04:30:52;;;;;;;20.50;3.40;;;;;;;17.90;74.89;98746.03;105093;1271;74454;-24
2022/08/23 04:33:21;;;;;;;28.30;3.90;;;;;;;18.24;73.78;98744.18;104781;1271;63065;-24
2022/08/23 04:35:48;;;;;;;30.60;4.20;;;;;;;18.63;72.03;98744.38;104818;1271;63019;-25
2022/08/23 04:38:16;;;;;;;25.90;4.20;;;;;;;18.90;71.16;98751.78;104747;1271;75705;-24
2022/08/23 04:43:38;;;;;;;22.70;4.20;;;;;;;18.78;71.30;98758.39;104742;1271;75461;-25
2022/08/23 04:46:06;;;;;;;22.60;4.20;;;;;;;18.77;71.46;98758.58;104733;1271;62062;-24
2022/08/23 04:48:34;;;;;;;20.80;4.30;;;;;;;18.62;72.32;98760.07;104818;1271;61800;-24
2022/08/23 04:51:01;;;;;;;21.20;3.90;;;;;;;18.75;72.07;98763.70;104815;1272;76308;-24
2022/08/23 04:53:34;;;;;;;27.30;4.30;;;;;;;19.18;70.52;98762.31;104889;1271;76000;-24
2022/08/23 04:56:19;;;;;;;24.50;4.30;;;;;;;19.48;68.69;98762.02;105138;1271;75442;-23
2022/08/23 04:58:46;;;;;;;31.60;4.90;;;;;;;19.74;68.27;98761.05;104890;1271;61994;-23
2022/08/23 05:01:15;;;;;;;21.30;3.80;;;;;;;19.62;68.80;98762.34;104805;1271;61767;-23
2022/08/23 05:03:43;;;;;;;28.10;4.50;;;;;;;19.44;69.12;98761.70;104895;1272;75957;-24
2022/08/23 05:06:11;;;;;;;31.50;4.10;;;;;;;19.78;68.77;98767.02;104680;1274;75918;-24
2022/08/23 05:08:39;;;;;;;20.10;4.20;;;;;;;19.80;68.38;98767.20;104873;1271;74694;-24
2022/08/23 05:11:08;;;;;;;28.30;5.10;;;;;;;19.61;69.20;98768.58;104802;1271;62480;-24
2022/08/23 05:13:35;;;;;;;26.50;4.50;;;;;;;19.47;69.76;98768.11;104769;1272;61765;-24
2022/08/23 05:16:04;;;;;;;21.80;4.10;;;;;;;19.32;70.28;98766.35;104980;1271;76658;-24
2022/08/23 05:18:33;;;;;;;22.40;3.20;;;;;;;19.74;69.54;98769.63;104782;1271;75762;-24
2022/08/23 05:21:01;;;;;;;24.70;4.40;;;;;;;20.42;67.47;98772.67;104732;1271;75530;-23
2022/08/23 05:23:28;;;;;;;23.10;4.20;;;;;;;20.98;64.59;98773.11;104583;1274;62232;-24
2022/08/23 05:26:10;;;;;;;32.80;3.80;;;;;;;21.20;64.19;98774.98;104640;1271;63075;-24
2022/08/23 05:28:41;;;;;;;29.40;4.70;;;;;;;21.59;63.47;98777.89;104821;1271;76548;-24
2022/08/23 05:31:13;;;;;;;24.40;4.30;;;;;;;21.52;63.01;98778.05;104668;1271;77337;-24
2022/08/23 05:33:46;;;;;;;24.50;4.80;;;;;;;21.15;63.27;98780.48;104723;1271;73077;-24
2022/08/23 05:36:16;;;;;;;23.20;4.10;;;;;;;21.27;63.09;98776.98;104827;1271;61985;-24
2022/08/23 05:38:45;;;;;;;30.60;4.10;;;;;;;21.31;63.26;98782.11;104648;1271;61859;-24
2022/08/23 05:41:13;;;;;;;26.70;3.80;;;;;;;21.26;62.86;98782.49;104686;1272;76539;-24
2022/08/23 05:43:40;;;;;;;21.60;4.50;;;;;;;21.20;63.22;98788.11;105003;1271;77199;-24
2022/08/23 05:46:13;;;;;;;22.00;3.50;;;;;;;21.17;64.13;98793.54;105050;1271;74216;-25
2022/08/23 05:48:49;;;;;;;27.40;3.60;;;;;;;21.16;64.01;98796.91;103299;1271;1921374;-24
2022/08/23 05:51:24;;;;;;;21.80;4.70;;;;;;;21.12;64.25;98791.52;104760;1271;62114;-24
2022/08/23 05:53:52;;;;;;;;;;;;;;;21.03;64.23;98785.64;104687;1271;75318;-24
2022/08/23 05:56:20;;;;;;;17.70;3.80;;;;;;;21.05;63.56;98782.26;104853;1271;75919;-24
2022/08/23 05:58:49;;;;;;;17.60;4.30;;;;;;;20.95;63.42;98783.61;104654;1271;74374;-24
2022/08/23 06:01:19;;;;;;;25.80;4.50;;;;;;;21.11;64.19;98787.89;104704;1271;62272;-24
2022/08/23 06:03:47;;;;;;;17.00;4.10;;;;;;;21.17;64.01;98785.27;104636;1271;62755;-24
2022/08/23 06:06:15;;;;;;;27.00;4.90;;;;;;;21.16;63.88;98779.91;104707;1271;76573;-24
2022/08/23 06:08:45;;;;;;;25.00;4.00;;;;;;;20.70;65.25;98784.73;104764;1274;75934;-24
2022/08/23 06:11:21;;;;;;;29.80;4.80;;;;;;;20.93;64.46;98780.92;104683;1271;74416;-24
2022/08/23 06:13:53;;;;;;;19.10;3.90;;;;;;;20.89;64.57;98782.71;104745;1271;61773;-24
2022/08/23 06:16:24;;;;;;;14.80;3.70;;;;;;;21.11;64.18;98784.47;104645;1271;61720;-24
2022/08/23 06:18:52;;;;;;;20.50;3.70;;;;;;;21.65;62.79;98783.99;104689;1271;76466;-24
2022/08/23 06:21:40;;;;;;;31.10;4.30;;;;;;;22.18;61.41;98782.30;104714;1271;77037;-24
2022/08/23 06:24:07;;;;;;;27.60;3.70;;;;;;;22.42;61.86;98779.16;104690;1271;75468;-25
2022/08/23 06:26:41;;;;;;;23.20;4.40;;;;;;;22.50;60.89;98776.64;104802;1272;61745;-24
2022/08/23 06:29:10;;;;;;;34.10;4.80;;;;;;;22.21;61.61;98774.41;104489;1271;62012;-24
2022/08/23 06:31:48;;;;;;;21.60;3.70;;;;;;;22.31;61.57;98773.13;104762;1271;76631;-25
2022/08/23 06:34:36;;;;;;;22.10;4.00;;;;;;;22.50;60.82;98769.34;104877;1271;75889;-24
2022/08/23 06:37:11;;;;;;;24.00;3.70;;;;;;;22.63;60.13;98772.83;104922;1271;75728;-25
2022/08/23 06:39:57;;;;;;;21.90;3.40;;;;;;;22.91;60.49;98771.46;104777;1271;63053;-24
2022/08/23 06:42:37;;;;;;;18.70;3.50;;;;;;;22.92;59.09;98777.03;104806;1271;63207;-24
2022/08/23 06:45:07;;;;;;;20.00;3.70;;;;;;;23.02;59.62;98774.16;104770;1270;75479;-24
2022/08/23 06:47:37;;;;;;;17.60;3.40;;;;;;;23.29;59.32;98775.00;104731;1271;76044;-24
2022/08/23 06:50:05;;;;;;;25.10;4.00;;;;;;;23.25;59.00;98773.24;104722;1271;75138;-24
2022/08/23 06:52:54;;;;;;;23.40;4.20;;;;;;;23.19;58.98;98780.36;104716;1271;61938;-24
2022/08/23 06:55:35;;;;;;;18.60;3.90;;;;;;;23.14;59.07;98780.83;104715;1271;61784;-24
2022/08/23 06:58:14;;;;;;;16.10;3.70;;;;;;;23.44;59.44;98783.11;104762;1271;75585;-24
2022/08/23 07:01:32;;;;;;;21.80;4.20;;;;;;;23.77;58.12;98782.48;104906;1271;75769;-23
2022/08/23 07:04:23;;;;;;;;;;;;;;;23.68;57.55;98785.05;104779;1272;74512;-23
2022/08/23 07:07:09;;;;;;;14.80;2.70;;;;;;;23.56;58.92;98779.91;104873;1271;61282;-23
2022/08/23 07:09:38;;;;;;;16.60;3.70;;;;;;;23.95;57.71;98778.72;104892;1271;62425;-24
2022/08/23 07:12:50;;;;;;;25.50;3.90;;;;;;;24.06;58.28;98777.24;104866;1274;75866;-23
2022/08/23 07:15:19;;;;;;;20.90;4.60;;;;;;;24.05;56.77;98772.74;105102;1271;75082;-23
2022/08/23 07:17:47;;;;;;;20.90;3.60;;;;;;;23.77;56.74;98769.88;104838;1271;75441;-24
2022/08/23 07:20:14;;;;;;;21.80;4.20;;;;;;;23.63;56.49;98768.53;104774;1271;62391;-24
2022/08/23 07:22:43;;;;;;;21.90;3.60;;;;;;;23.75;57.23;98765.40;104894;1271;61953;-23
2022/08/23 07:25:11;;;;;;;22.30;3.70;;;;;;;23.75;56.90;98765.28;104809;1272;75524;-24
2022/08/23 07:27:39;;;;;;;16.40;3.10;;;;;;;23.91;56.98;98765.30;104759;1271;76085;-24
2022/08/23 07:30:07;;;;;;;18.70;3.20;;;;;;;24.19;56.12;98768.44;104798;1271;74785;-24
2022/08/23 07:32:37;;;;;;;15.00;3.30;;;;;;;24.24;56.03;98770.71;104752;1271;61753;-24
2022/08/23 07:35:31;;;;;;;22.60;3.40;;;;;;;24.46;54.93;98769.19;104796;1271;61966;-24
2022/08/23 07:38:29;;;;;;;21.40;3.90;;;;;;;24.75;55.42;98768.00;104827;1272;76574;-23
2022/08/23 07:40:58;;;;;;;11.80;2.80;;;;;;;24.53;53.76;98768.71;104801;1271;76927;-22
2022/08/23 07:43:25;;;;;;;17.20;3.20;;;;;;;24.68;53.71;98769.92;104787;1271;74014;-24
2022/08/23 07:45:53;;;;;;;15.40;3.30;;;;;;;25.15;53.07;98768.69;104827;1271;61791;-24
2022/08/23 07:48:21;;;;;;;31.00;4.00;;;;;;;25.31;52.53;98762.14;104784;1271;62166;-23
2022/08/23 07:51:14;;;;;;;10.40;3.20;;;;;;;25.11;52.79;98762.85;104729;1272;75521;-24
2022/08/23 07:53:44;;;;;;;23.10;3.40;;;;;;;25.69;52.41;98762.71;104799;1271;75880;-22
2022/08/23 07:56:15;;;;;;;16.80;3.40;;;;;;;25.64;52.01;98765.30;104745;1271;75601;-24
2022/08/23 07:58:55;;;;;;;20.90;3.50;;;;;;;26.16;50.67;98764.48;104725;1271;61736;-23
2022/08/23 08:01:32;;;;;;;18.80;3.10;;;;;;;26.53;49.73;98767.16;104785;1274;61777;-23
2022/08/23 08:04:00;;;;;;;13.20;3.30;;;;;;;26.58;48.66;98771.09;105092;1271;76641;-23
2022/08/23 08:06:34;;;;;;;17.20;3.60;;;;;;;26.88;48.27;98771.41;104729;1271;75803;-23
2022/08/23 08:09:02;;;;;;;13.00;3.60;;;;;;;27.16;47.52;98767.52;104889;1271;74171;-23
2022/08/23 08:11:30;;;;;;;19.00;3.30;;;;;;;27.28;48.06;98767.88;104861;1272;61137;-23
2022/08/23 08:14:03;;;;;;;12.90;3.30;;;;;;;27.35;46.67;98768.73;104780;1271;63086;-23
2022/08/23 08:16:41;;;;;;;17.10;2.90;;;;;;;26.51;47.83;98770.24;105140;1270;76606;-24
2022/08/23 08:19:10;;;;;;;19.30;3.40;;;;;;;26.59;48.35;98767.80;104869;1271;75914;-24
2022/08/23 08:21:58;;;;;;;18.50;3.30;;;;;;;26.79;48.54;98769.36;104184;1280;75775;-24
2022/08/23 08:25:00;;;;;;;12.50;2.60;;;;;;;26.95;47.93;98768.29;103617;1286;62906;-24
2022/08/23 08:27:29;;;;;;;14.30;2.60;;;;;;;27.22;46.26;98765.49;104200;1277;62011;-24
2022/08/23 08:30:00;;;;;;;13.10;3.00;;;;;;;27.62;47.17;98766.02;104215;1277;75594;-24
2022/08/23 08:32:27;;;;;;;19.20;3.50;;;;;;;27.54;46.52;98768.37;104257;1277;75989;-24
2022/08/23 08:34:55;;;;;;;17.90;4.10;;;;;;;27.40;46.52;98762.46;104197;1277;75534;-25
2022/08/23 08:37:22;;;;;;;7.70;2.80;;;;;;;27.71;46.95;98769.80;104439;1278;63098;-24
2022/08/23 08:39:50;;;;;;;17.50;3.40;;;;;;;27.76;46.06;98766.98;104382;1277;62100;-24
2022/08/23 08:42:24;;;;;;;17.70;3.10;;;;;;;27.82;46.45;98770.87;104390;1277;76798;-24
2022/08/23 08:44:59;;;;;;;12.90;3.10;;;;;;;27.72;45.54;98771.44;104255;1277;76874;-24
2022/08/23 08:47:38;;;;;;;13.90;2.80;;;;;;;28.04;45.66;98772.79;104285;1277;75451;-24
2022/08/23 08:50:36;;;;;;;13.80;2.90;;;;;;;28.41;45.03;98774.18;104448;1277;61878;-25
2022/08/23 08:53:21;;;;;;;8.60;2.50;;;;;;;28.63;45.35;98779.43;104510;1280;62859;-24
2022/08/23 08:56:23;;;;;;;13.50;3.20;;;;;;;27.82;45.69;98776.90;104507;1278;75379;-24
2022/08/23 08:59:14;;;;;;;19.00;3.40;;;;;;;27.91;46.48;98774.74;104664;1271;76034;-24
2022/08/23 09:01:41;;;;;;;13.70;2.70;;;;;;;28.45;45.99;98776.33;104773;1271;74201;-23
2022/08/23 09:04:11;;;;;;;15.80;2.70;;;;;;;28.62;44.88;98777.31;105067;1271;61907;-23
2022/08/23 09:06:57;;;;;;;14.80;2.70;;;;;;;28.85;44.60;98772.88;104817;1274;63081;-23
2022/08/23 09:09:47;;;;;;;23.00;3.40;;;;;;;28.70;43.95;98777.59;104846;1271;75519;-23
2022/08/23 09:12:15;;;;;;;10.30;2.70;;;;;;;28.45;45.56;98778.88;104646;1274;77190;-23
2022/08/23 09:15:11;;;;;;;21.10;3.20;;;;;;;28.91;44.37;98777.06;104783;1271;74291;-24
2022/08/23 09:17:53;;;;;;;11.80;2.80;;;;;;;28.99;43.49;98776.83;104863;1271;62873;-23
2022/08/23 09:20:23;;;;;;;15.60;3.10;;;;;;;29.10;43.36;98777.04;104900;1274;62265;-23
2022/08/23 09:22:56;;;;;;;15.70;3.00;;;;;;;28.99;43.52;98776.48;104671;1274;76833;-24
2022/08/23 09:25:28;;;;;;;11.80;2.50;;;;;;;28.39;44.87;98778.23;104720;1272;76132;-23
2022/08/23 09:28:14;;;;;;;18.70;2.80;;;;;;;28.73;44.11;98777.08;104710;1271;74310;-23
2022/08/23 09:30:47;;;;;;;14.00;3.10;;;;;;;29.00;43.63;98775.21;104829;1271;62960;-23
2022/08/23 09:33:20;;;;;;;14.50;3.00;;;;;;;27.94;44.82;98777.10;104699;1274;63131;-24
2022/08/23 09:36:25;;;;;;;7.90;2.30;;;;;;;28.24;45.07;98775.77;104684;1271;76331;-23
2022/08/23 09:38:57;;;;;;;15.50;2.80;;;;;;;28.78;44.62;98785.60;104335;1275;76094;-23
2022/08/23 09:41:40;;;;;;;15.20;2.80;;;;;;;29.33;42.72;98780.83;104645;1271;75445;-23
2022/08/23 09:44:12;;;;;;;11.00;2.60;;;;;;;29.00;42.05;98783.94;104622;1274;62017;-23
2022/08/23 09:46:42;;;;;;;16.60;3.40;;;;;;;28.50;43.58;98779.81;104914;1272;61804;-23
2022/08/23 09:49:28;;;;;;;7.50;2.50;;;;;;;29.22;44.70;98780.49;104735;1272;75427;-23
2022/08/23 09:52:32;;;;;;;15.80;2.80;;;;;;;30.06;41.50;98775.02;104766;1271;75978;-24
2022/08/23 09:55:05;;;;;;;12.60;2.60;;;;;;;30.55;41.37;98778.26;104774;1272;75806;-23
2022/08/23 09:57:36;;;;;;;15.20;3.00;;;;;;;30.21;40.44;98775.70;104745;1270;61756;-24
2022/08/23 10:00:14;;;;;;;13.90;2.70;;;;;;;30.04;41.37;98775.07;104756;1271;61707;-24
2022/08/23 10:02:41;;;;;;;14.10;2.80;;;;;;;30.86;40.13;98780.02;104641;1277;76584;-23
2022/08/23 10:05:36;;;;;;;11.40;2.70;;;;;;;31.03;36.97;98783.38;104688;1271;75941;-23
2022/08/23 10:08:05;;;;;;;12.00;2.80;;;;;;;31.08;36.14;98791.52;104578;1274;75436;-23
2022/08/23 10:10:45;;;;;;;16.00;3.20;;;;;;;30.97;37.05;98794.05;104707;1274;61071;-24
2022/08/23 10:13:20;;;;;;;12.40;2.50;;;;;;;30.05;38.70;98791.92;104763;1271;61985;-24
2022/08/23 10:16:20;;;;;;;15.00;3.40;;;;;;;30.60;38.83;98794.88;104672;1274;76303;-25
2022/08/23 10:19:39;;;;;;;8.10;2.40;;;;;;;31.10;37.84;98794.21;104788;1272;76971;-24
2022/08/23 10:22:25;;;;;;;10.70;2.50;;;;;;;31.31;36.75;98797.41;104343;1277;75421;-24
2022/08/23 10:25:22;;;;;;;13.90;3.00;;;;;;;31.42;37.37;98800.20;104729;1271;62061;-24
2022/08/23 10:31:03;;;;;;;10.90;2.80;;;;;;;32.03;37.19;98796.66;104825;1271;76681;-25
2022/08/23 10:33:39;;;;;;;16.20;3.60;;;;;;;31.94;36.93;98795.06;104625;1272;75712;-24
2022/08/23 10:36:28;;;;;;;18.00;3.30;;;;;;;32.16;36.26;98794.80;104643;1272;74282;-23
2022/08/23 10:38:56;;;;;;;13.80;3.00;;;;;;;32.45;36.53;98799.98;104725;1271;61872;-24
2022/08/23 10:41:39;;;;;;;10.80;3.00;;;;;;;32.47;36.14;98798.09;104776;1272;61894;-22
2022/08/23 10:44:26;;;;;;;;;;;;;;;32.79;35.66;98795.95;104685;1271;76704;-23
2022/08/23 10:47:00;;;;;;;10.40;2.50;;;;;;;32.68;35.25;98799.02;104768;1271;75805;-24
2022/08/23 10:49:28;;;;;;;16.40;3.30;;;;;;;32.20;36.03;98804.55;104619;1271;75161;-23
2022/08/23 10:51:58;;;;;;;18.70;3.40;;;;;;;32.41;35.36;98804.53;104675;1274;62979;-23
2022/08/23 10:54:58;;;;;;;13.70;2.90;;;;;;;32.69;35.80;98803.21;104856;1271;61685;-24
2022/08/23 10:57:37;;;;;;;9.70;3.00;;;;;;;31.56;35.66;98800.66;104706;1272;75651;-22
2022/08/23 11:00:29;;;;;;;12.00;3.40;;;;;;;31.60;36.84;98803.44;105015;1271;75962;-23
2022/08/23 11:03:28;;;;;;;14.40;4.00;;;;;;;32.25;36.62;98808.08;104917;1272;75426;-23
2022/08/23 11:06:40;;;;;;;11.80;3.10;;;;;;;32.28;35.01;98806.02;104962;1271;62289;-23
2022/08/23 11:09:18;;;;;;;13.80;2.90;;;;;;;32.56;35.28;98807.75;104687;1274;62069;-23
2022/08/23 11:12:02;;;;;;;14.90;3.00;;;;;;;32.76;34.40;98802.46;104648;1274;76523;-23
2022/08/23 11:14:38;;;;;;;10.60;3.60;;;;;;;32.86;33.72;98807.72;104706;1274;76377;-23
2022/08/23 11:17:11;;;;;;;15.50;3.60;;;;;;;32.80;33.84;98806.05;104650;1274;75440;-23
2022/08/23 11:19:49;;;;;;;17.40;4.10;;;;;;;32.78;33.96;98807.48;104496;1271;61505;-23
2022/08/23 11:22:16;;;;;;;11.20;3.20;;;;;;;32.50;33.91;98806.54;104772;1274;63106;-25
2022/08/23 11:24:51;;;;;;;13.80;3.80;;;;;;;32.55;34.46;98804.85;104747;1274;75390;-24
2022/08/23 11:27:33;;;;;;;10.60;2.90;;;;;;;32.83;34.84;98809.72;104766;1272;76855;-23
2022/08/23 11:30:35;;;;;;;8.40;2.90;;;;;;;32.97;33.23;98814.02;105090;1272;74273;-23
2022/08/23 11:33:16;;;;;;;16.80;3.00;;;;;;;32.94;32.95;98808.76;105119;1272;61937;-23
2022/08/23 11:35:47;;;;;;;13.50;3.00;;;;;;;32.98;34.95;98814.23;104840;1272;62986;-24
2022/08/23 11:38:16;;;;;;;10.90;2.90;;;;;;;33.14;34.05;98813.80;104453;1276;75705;-25
2022/08/23 11:40:49;;;;;;;8.90;3.10;;;;;;;33.14;34.38;98815.25;104916;1271;75980;-23
2022/08/23 11:43:39;;;;;;;16.40;2.90;;;;;;;33.18;34.10;98812.05;104981;1272;74310;-23
2022/08/23 11:46:21;;;;;;;13.40;2.80;;;;;;;33.14;34.38;98814.02;104781;1271;62819;-23
2022/08/23 11:49:17;;;;;;;26.50;3.70;;;;;;;32.60;33.47;98814.80;104813;1271;61954;-23
2022/08/23 11:52:10;;;;;;;13.40;2.40;;;;;;;32.39;34.18;98817.03;104544;1271;76692;-23
2022/08/23 11:54:46;;;;;;;12.60;3.10;;;;;;;32.46;34.39;98815.33;104794;1271;77154;-23
2022/08/23 11:57:31;;;;;;;15.60;3.30;;;;;;;32.05;34.67;98813.02;104631;1272;74344;-23
2022/08/23 12:00:14;;;;;;;9.30;2.60;;;;;;;32.09;34.75;98815.02;104810;1271;62026;-23
2022/08/23 12:03:01;;;;;;;16.00;2.70;;;;;;;32.38;34.52;98815.44;104825;1271;61986;-23
2022/08/23 12:05:39;;;;;;;8.10;2.50;;;;;;;32.44;34.75;98813.89;104659;1271;75513;-25
2022/08/23 12:08:06;;;;;;;13.30;2.80;;;;;;;32.57;36.64;98816.90;104803;1274;77435;-23